CheckWX is a tool to help pilots better visualize weather data.  It is not intended as a substitute for an official pre-flight weather briefing.

19:22:59 UTC

ENMH METAR
Mehamn Airport
Mehamn, Norway
Current

3 hours ago

ENMH 261650Z 08009KT 9999 SCT012 BKN020 04/02 Q1002
Observed
May-26 @ 16:50 UTC
Wind
  • 080° at 9 KTS
Visibility
10,000+ meters
Flight Rules
MVFR
Cloud Levels
  • Scattered at 1,200' AGL
  • Broken at 2,000' AGL
Temperature
C / 39°F
Dewpoint
C / 36°F
Humidity
87%
Altimeter
29.59" Hg
Pressure
1001.92 hPa
Previous

5 hours ago

ENMH 261450Z 09009KT 9999 SCT020 BKN030 05/01 Q1002
Observed
May-26 @ 14:50 UTC
Wind
  • 090° at 9 KTS
Visibility
10,000+ meters
Flight Rules
MVFR
Cloud Levels
  • Scattered at 2,000' AGL
  • Broken at 3,000' AGL
Temperature
C / 41°F
Dewpoint
C / 34°F
Humidity
76%
Altimeter
29.59" Hg
Pressure
1001.92 hPa